createdAt,value
2019-03-25T00:00:48.449Z,8.60
2019-03-25T00:03:17.230Z,8.50
2019-03-25T00:05:45.631Z,8.50
2019-03-25T00:08:14.047Z,8.50
2019-03-25T00:10:42.535Z,8.50
2019-03-25T00:13:10.947Z,8.50
2019-03-25T00:15:39.363Z,8.50
2019-03-25T00:18:07.847Z,8.50
2019-03-25T00:20:36.251Z,8.40
2019-03-25T00:23:04.737Z,8.40
2019-03-25T00:25:33.139Z,8.50
2019-03-25T00:28:01.557Z,8.50
2019-03-25T00:30:29.965Z,8.50
2019-03-25T00:32:58.394Z,8.50
2019-03-25T00:35:26.790Z,8.50
2019-03-25T00:37:55.481Z,8.50
2019-03-25T00:40:24.036Z,8.50
2019-03-25T00:42:52.561Z,8.50
2019-03-25T00:45:20.975Z,8.50
2019-03-25T00:47:49.750Z,8.50
2019-03-25T00:50:18.220Z,8.50
2019-03-25T00:52:46.713Z,8.60
2019-03-25T00:55:15.283Z,8.60
2019-03-25T00:57:43.753Z,8.60
2019-03-25T01:00:12.573Z,8.60
2019-03-25T01:02:40.979Z,8.70
2019-03-25T01:05:09.621Z,8.70
2019-03-25T01:07:38.107Z,8.70
2019-03-25T01:10:07.663Z,8.70
2019-03-25T01:12:36.104Z,8.70
2019-03-25T01:15:06.546Z,8.80
2019-03-25T01:17:34.956Z,8.80
2019-03-25T01:20:05.120Z,8.80
2019-03-25T01:22:33.539Z,8.80
2019-03-25T01:25:02.761Z,8.70
2019-03-25T01:27:31.443Z,8.80
2019-03-25T01:29:59.847Z,8.80
2019-03-25T01:32:28.257Z,8.80
2019-03-25T01:34:56.680Z,8.80
2019-03-25T01:37:25.125Z,8.80
2019-03-25T01:39:53.607Z,8.80
2019-03-25T01:42:22.013Z,8.80
2019-03-25T01:44:50.500Z,8.80
2019-03-25T01:47:18.921Z,8.80
2019-03-25T01:49:47.332Z,8.90
2019-03-25T01:52:15.734Z,8.90
2019-03-25T01:54:44.153Z,8.90
2019-03-25T01:57:12.565Z,8.90
2019-03-25T01:59:40.988Z,8.80
2019-03-25T02:02:09.387Z,8.80
2019-03-25T02:04:37.804Z,8.80
2019-03-25T02:07:06.219Z,8.80
2019-03-25T02:09:34.644Z,8.80
2019-03-25T02:12:03.054Z,8.80
2019-03-25T02:14:31.469Z,8.80
2019-03-25T02:16:59.884Z,8.80
2019-03-25T02:19:28.394Z,8.70
2019-03-25T02:21:56.805Z,8.70
2019-03-25T02:24:25.224Z,8.70
2019-03-25T02:26:53.628Z,8.70
2019-03-25T02:29:22.048Z,8.70
2019-03-25T02:31:50.473Z,8.60
2019-03-25T02:34:18.881Z,8.70
2019-03-25T02:36:47.305Z,8.70
2019-03-25T02:39:15.726Z,8.70
2019-03-25T02:41:44.156Z,8.80
2019-03-25T02:44:12.578Z,8.70
2019-03-25T02:46:40.992Z,8.70
2019-03-25T02:49:09.413Z,8.70
2019-03-25T02:51:37.822Z,8.70
2019-03-25T02:54:06.232Z,8.60
2019-03-25T02:56:34.659Z,8.60
2019-03-25T02:59:03.075Z,8.50
2019-03-25T03:01:31.565Z,8.50
2019-03-25T03:04:00.046Z,8.40
2019-03-25T03:06:28.515Z,8.30
2019-03-25T03:08:56.929Z,8.30
2019-03-25T03:11:25.587Z,8.30
2019-03-25T03:13:55.833Z,8.20
2019-03-25T03:16:24.247Z,8.20
2019-03-25T03:18:52.914Z,8.10
2019-03-25T03:21:21.658Z,8.00
2019-03-25T03:23:50.048Z,8.00
2019-03-25T03:26:18.714Z,8.00
2019-03-25T03:28:47.245Z,8.00
2019-03-25T03:31:15.657Z,7.90
2019-03-25T03:33:44.136Z,7.90
2019-03-25T03:36:14.673Z,7.80
2019-03-25T03:38:43.140Z,7.80
2019-03-25T03:41:11.552Z,7.80
2019-03-25T03:43:39.973Z,7.70
2019-03-25T03:46:08.384Z,7.70
2019-03-25T03:48:37.068Z,7.60
2019-03-25T03:51:05.795Z,7.60
2019-03-25T03:53:34.539Z,7.60
2019-03-25T03:56:12.591Z,7.60
2019-03-25T03:58:34.191Z,7.60
2019-03-25T04:01:02.605Z,7.60
2019-03-25T04:03:31.021Z,7.60
2019-03-25T04:05:59.424Z,7.60
2019-03-25T04:08:27.841Z,7.50
2019-03-25T04:10:56.336Z,7.50
2019-03-25T04:13:24.800Z,7.50
2019-03-25T04:15:53.227Z,7.40
2019-03-25T04:18:21.637Z,7.40
2019-03-25T04:20:50.069Z,7.30
2019-03-25T04:23:18.475Z,7.30
2019-03-25T04:25:46.880Z,7.30
2019-03-25T04:28:15.301Z,7.30
2019-03-25T04:30:43.711Z,7.30
2019-03-25T04:33:12.135Z,7.30
2019-03-25T04:35:40.545Z,7.20
2019-03-25T04:38:08.952Z,7.20
2019-03-25T04:40:37.358Z,7.30
2019-03-25T04:43:05.785Z,7.30
2019-03-25T04:45:34.195Z,7.20
2019-03-25T04:48:02.601Z,7.20
2019-03-25T04:50:31.021Z,7.10
2019-03-25T04:52:59.443Z,7.10
2019-03-25T04:55:27.859Z,7.00
2019-03-25T04:57:56.533Z,7.00
2019-03-25T05:00:37.170Z,7.00
2019-03-25T05:03:05.670Z,7.00
2019-03-25T05:05:36.085Z,6.90
2019-03-25T05:08:04.346Z,6.90
2019-03-25T05:10:32.753Z,6.90
2019-03-25T05:13:01.174Z,6.90
2019-03-25T05:15:29.585Z,6.90
2019-03-25T05:17:57.999Z,6.90
2019-03-25T05:20:26.432Z,6.80
2019-03-25T05:22:54.912Z,6.80
2019-03-25T05:25:23.329Z,6.80
2019-03-25T05:27:51.733Z,6.80
2019-03-25T05:30:22.859Z,6.80
2019-03-25T05:32:50.289Z,6.80
2019-03-25T05:35:18.712Z,6.80
2019-03-25T05:37:47.145Z,6.80
2019-03-25T05:40:15.552Z,6.80
2019-03-25T05:42:43.975Z,6.80
2019-03-25T05:45:12.513Z,6.80
2019-03-25T05:47:40.929Z,6.80
2019-03-25T05:50:09.775Z,6.80
2019-03-25T05:52:38.198Z,6.70
2019-03-25T05:55:07.664Z,6.70
2019-03-25T05:57:36.066Z,6.80
2019-03-25T06:00:04.927Z,6.80
2019-03-25T06:02:33.340Z,6.80
2019-03-25T06:05:01.810Z,6.80
2019-03-25T06:07:30.264Z,6.80
2019-03-25T06:09:58.673Z,6.80
2019-03-25T06:12:27.089Z,6.80
2019-03-25T06:14:55.536Z,6.80
2019-03-25T06:17:23.958Z,6.80
2019-03-25T06:19:52.357Z,6.90
2019-03-25T06:22:20.782Z,6.80
2019-03-25T06:24:50.505Z,6.80
2019-03-25T06:27:18.961Z,6.90
2019-03-25T06:29:47.381Z,6.90
2019-03-25T06:32:15.793Z,7.00
2019-03-25T06:34:44.219Z,7.00
2019-03-25T06:37:12.624Z,7.00
2019-03-25T06:39:41.052Z,6.90
2019-03-25T06:42:09.469Z,6.80
2019-03-25T06:44:37.877Z,6.80
2019-03-25T06:47:06.364Z,6.80
2019-03-25T06:49:34.775Z,6.70
2019-03-25T06:52:03.191Z,6.70
2019-03-25T06:54:31.595Z,6.70
2019-03-25T06:57:00.037Z,6.80
2019-03-25T06:59:28.511Z,6.80
2019-03-25T07:01:56.964Z,6.80
2019-03-25T07:04:25.385Z,6.80
2019-03-25T07:06:53.795Z,6.80
2019-03-25T07:09:22.208Z,6.90
2019-03-25T07:11:50.717Z,6.90
2019-03-25T07:14:19.455Z,7.00
2019-03-25T07:16:47.887Z,6.90
2019-03-25T07:19:16.291Z,6.90
2019-03-25T07:21:44.707Z,6.90
2019-03-25T07:24:13.120Z,7.00
2019-03-25T07:26:41.535Z,7.20
2019-03-25T07:29:09.950Z,7.40
2019-03-25T07:31:38.367Z,7.30
2019-03-25T07:34:06.780Z,7.30
2019-03-25T07:36:35.200Z,7.40
2019-03-25T07:39:05.089Z,7.40
2019-03-25T07:41:33.500Z,7.20
2019-03-25T07:44:01.933Z,7.30
2019-03-25T07:46:30.350Z,7.10
2019-03-25T07:48:58.848Z,7.20
2019-03-25T07:51:27.262Z,7.30
2019-03-25T07:53:55.684Z,7.20
2019-03-25T07:56:24.096Z,7.30
2019-03-25T07:58:52.541Z,7.30
2019-03-25T08:01:20.978Z,7.20
2019-03-25T08:03:49.468Z,7.20
2019-03-25T08:06:17.882Z,7.10
2019-03-25T08:08:47.283Z,7.10
2019-03-25T08:11:15.690Z,7.10
2019-03-25T08:13:44.224Z,7.10
2019-03-25T08:16:12.711Z,7.10
2019-03-25T08:18:41.159Z,7.10
2019-03-25T08:21:09.583Z,7.20
2019-03-25T08:23:38.069Z,7.40
2019-03-25T08:26:06.486Z,7.60
2019-03-25T08:28:34.891Z,7.70
2019-03-25T08:31:03.308Z,7.80
2019-03-25T08:33:31.730Z,7.80
2019-03-25T08:36:00.144Z,7.90
2019-03-25T08:38:28.565Z,7.90
2019-03-25T08:40:56.984Z,7.90
2019-03-25T08:43:25.424Z,7.90
2019-03-25T08:45:53.904Z,7.90
2019-03-25T08:48:22.316Z,8.00
2019-03-25T08:50:50.738Z,8.10
2019-03-25T08:53:19.148Z,8.20
2019-03-25T08:55:47.570Z,8.40
2019-03-25T08:58:15.983Z,8.50
2019-03-25T09:00:44.405Z,8.40
2019-03-25T09:03:12.824Z,8.50
2019-03-25T09:05:41.240Z,8.50
2019-03-25T09:08:09.660Z,8.20
2019-03-25T09:10:38.069Z,8.00
2019-03-25T09:13:06.581Z,7.90
2019-03-25T09:15:34.982Z,7.80
2019-03-25T09:18:03.422Z,7.90
2019-03-25T09:20:31.968Z,7.70
2019-03-25T09:23:00.387Z,7.70
2019-03-25T09:25:28.796Z,7.60
2019-03-25T09:27:58.819Z,7.60
2019-03-25T09:30:52.786Z,7.60
2019-03-25T09:33:21.545Z,7.60
2019-03-25T09:35:50.312Z,7.70
2019-03-25T09:38:18.759Z,7.70
2019-03-25T09:40:47.237Z,7.70
2019-03-25T09:43:15.647Z,7.80
2019-03-25T09:45:44.064Z,7.70
2019-03-25T09:48:12.469Z,7.70
2019-03-25T09:50:40.882Z,7.80
2019-03-25T09:53:09.371Z,7.80
2019-03-25T09:55:39.308Z,7.90
2019-03-25T09:58:07.720Z,7.90
2019-03-25T10:00:36.126Z,7.90
2019-03-25T10:03:05.472Z,7.90
2019-03-25T10:05:33.957Z,7.90
2019-03-25T10:08:02.363Z,7.90
2019-03-25T10:10:30.785Z,7.90
2019-03-25T10:12:59.196Z,7.80
2019-03-25T10:15:27.615Z,7.80
2019-03-25T10:17:56.027Z,7.80
2019-03-25T10:20:24.517Z,7.80
2019-03-25T10:22:52.920Z,7.90
2019-03-25T10:25:21.409Z,8.10
2019-03-25T10:27:49.822Z,8.00
2019-03-25T10:30:18.872Z,8.10
2019-03-25T10:32:47.347Z,8.20
2019-03-25T10:35:15.908Z,8.30
2019-03-25T10:37:44.312Z,8.40
2019-03-25T10:40:13.275Z,8.50
2019-03-25T10:42:41.700Z,8.60
2019-03-25T10:45:10.948Z,8.90
2019-03-25T10:47:39.360Z,9.00
2019-03-25T10:50:10.176Z,9.00
2019-03-25T10:52:38.645Z,9.00
2019-03-25T10:55:07.925Z,9.00
2019-03-25T10:57:36.668Z,8.80
2019-03-25T11:00:10.247Z,8.90
2019-03-25T11:02:38.662Z,8.90
2019-03-25T11:05:07.604Z,8.90
2019-03-25T11:07:36.120Z,8.90
2019-03-25T11:10:06.891Z,8.90
2019-03-25T11:12:35.311Z,8.90
2019-03-25T11:15:06.262Z,9.10
2019-03-25T11:17:34.674Z,9.10
2019-03-25T11:20:04.343Z,9.00
2019-03-25T11:22:32.755Z,8.90
2019-03-25T11:25:01.653Z,8.90
2019-03-25T11:27:30.058Z,9.10
2019-03-25T11:29:58.452Z,9.40
2019-03-25T11:32:26.869Z,9.60
2019-03-25T11:34:55.340Z,9.80
2019-03-25T11:37:23.747Z,9.60
2019-03-25T11:39:52.221Z,9.60
2019-03-25T11:42:20.643Z,9.50
2019-03-25T11:44:49.035Z,9.80
2019-03-25T11:47:17.442Z,9.60
2019-03-25T11:49:45.873Z,9.70
2019-03-25T11:52:14.284Z,9.50
2019-03-25T11:54:42.683Z,9.50
2019-03-25T11:57:11.108Z,9.40
2019-03-25T11:59:39.504Z,9.20
2019-03-25T12:02:17.319Z,9.00
2019-03-25T12:04:39.148Z,9.00
2019-03-25T12:07:07.561Z,9.00
2019-03-25T12:09:36.000Z,9.20
2019-03-25T12:12:04.477Z,9.30
2019-03-25T12:14:32.880Z,9.50
2019-03-25T12:17:01.291Z,9.40
2019-03-25T12:19:29.693Z,9.20
2019-03-25T12:21:58.108Z,8.90
2019-03-25T12:24:26.510Z,8.60
2019-03-25T12:26:54.926Z,8.50
2019-03-25T12:29:30.052Z,8.50
2019-03-25T12:31:53.479Z,8.40
2019-03-25T12:34:21.967Z,8.30
2019-03-25T12:36:50.377Z,8.70
2019-03-25T12:39:18.785Z,8.80
2019-03-25T12:41:47.205Z,9.00
2019-03-25T12:44:15.624Z,9.20
2019-03-25T12:46:44.043Z,9.50
2019-03-25T12:49:12.458Z,9.50
2019-03-25T12:51:43.195Z,9.50
2019-03-25T12:54:11.602Z,9.20
2019-03-25T12:56:40.024Z,9.00
2019-03-25T12:59:08.433Z,8.60
2019-03-25T13:01:36.851Z,8.30
2019-03-25T13:04:05.251Z,8.30
2019-03-25T13:06:33.672Z,8.50
2019-03-25T13:09:02.067Z,8.30
2019-03-25T13:11:30.479Z,8.30
2019-03-25T13:13:58.890Z,8.10
2019-03-25T13:16:27.289Z,8.10
2019-03-25T13:18:55.699Z,8.10
2019-03-25T13:21:24.107Z,8.00
2019-03-25T13:23:52.512Z,7.70
2019-03-25T13:26:20.928Z,7.60
2019-03-25T13:28:49.335Z,7.40
2019-03-25T13:31:17.752Z,7.30
2019-03-25T13:33:46.214Z,7.10
2019-03-25T13:36:14.659Z,7.00
2019-03-25T13:38:43.050Z,7.20
2019-03-25T13:41:11.472Z,7.30
2019-03-25T13:43:39.872Z,7.30
2019-03-25T13:46:08.276Z,7.40
2019-03-25T13:48:36.683Z,7.40
2019-03-25T13:51:05.261Z,7.50
2019-03-25T13:53:33.667Z,7.80
2019-03-25T13:56:02.077Z,7.90
2019-03-25T13:58:30.480Z,7.90
2019-03-25T14:00:59.380Z,7.80
2019-03-25T14:03:27.753Z,7.70
2019-03-25T14:05:56.219Z,7.70
2019-03-25T14:08:24.708Z,7.50
2019-03-25T14:10:53.120Z,7.20
2019-03-25T14:13:21.517Z,7.00
2019-03-25T14:15:49.927Z,7.20
2019-03-25T14:18:18.346Z,7.50
2019-03-25T14:20:46.774Z,7.70
2019-03-25T14:23:15.227Z,7.70
2019-03-25T14:25:43.643Z,7.90
2019-03-25T14:28:12.043Z,7.90
2019-03-25T14:30:40.488Z,7.70
2019-03-25T14:33:08.883Z,7.60
2019-03-25T14:35:37.283Z,7.30
2019-03-25T14:38:05.753Z,7.00
2019-03-25T14:40:34.429Z,6.20
2019-03-25T14:43:02.897Z,5.70
2019-03-25T14:45:31.307Z,5.40
2019-03-25T14:47:59.715Z,5.10
2019-03-25T14:50:28.132Z,4.90
2019-03-25T14:52:56.531Z,4.70
2019-03-25T14:55:25.007Z,4.30
2019-03-25T14:57:53.423Z,4.00
2019-03-25T15:00:25.539Z,3.80
2019-03-25T15:02:51.947Z,3.80
2019-03-25T15:05:20.363Z,3.90
2019-03-25T15:07:48.835Z,3.90
2019-03-25T15:10:17.487Z,4.00
2019-03-25T15:12:45.955Z,4.00
2019-03-25T15:15:15.004Z,4.10
2019-03-25T15:17:43.412Z,4.10
2019-03-25T15:20:12.276Z,4.20
2019-03-25T15:22:40.668Z,4.30
2019-03-25T15:25:09.521Z,4.40
2019-03-25T15:27:37.923Z,4.50
2019-03-25T15:30:08.872Z,4.80
2019-03-25T15:32:37.267Z,5.00
2019-03-25T15:35:07.211Z,5.10
2019-03-25T15:37:35.686Z,5.20
2019-03-25T15:40:07.577Z,5.30
2019-03-25T15:42:36.038Z,5.30
2019-03-25T15:45:06.271Z,5.30
2019-03-25T15:47:34.779Z,5.30
2019-03-25T15:50:03.920Z,5.40
2019-03-25T15:52:32.333Z,5.50
2019-03-25T15:55:00.731Z,5.50
2019-03-25T15:57:29.223Z,5.50
2019-03-25T15:59:57.685Z,5.40
2019-03-25T16:02:26.101Z,5.50
2019-03-25T16:04:54.501Z,5.40
2019-03-25T16:07:22.912Z,5.50
2019-03-25T16:09:51.317Z,5.50
2019-03-25T16:12:19.797Z,5.40
2019-03-25T16:14:48.212Z,5.30
2019-03-25T16:17:16.620Z,5.30
2019-03-25T16:19:45.028Z,5.30
2019-03-25T16:22:13.432Z,5.30
2019-03-25T16:24:41.852Z,5.20
2019-03-25T16:27:10.255Z,5.20
2019-03-25T16:29:38.665Z,5.20
2019-03-25T16:32:07.067Z,5.20
2019-03-25T16:34:35.477Z,5.20
2019-03-25T16:37:03.893Z,5.20
2019-03-25T16:39:32.288Z,5.10
2019-03-25T16:42:00.711Z,4.70
2019-03-25T16:44:29.121Z,4.10
2019-03-25T16:46:57.603Z,3.80
2019-03-25T16:49:26.011Z,3.60
2019-03-25T16:51:54.499Z,3.50
2019-03-25T16:54:22.914Z,3.50
2019-03-25T16:56:51.311Z,3.40
2019-03-25T16:59:19.728Z,3.40
2019-03-25T17:01:48.127Z,3.30
2019-03-25T17:04:16.545Z,3.40
2019-03-25T17:06:44.952Z,3.40
2019-03-25T17:09:13.373Z,3.40
2019-03-25T17:11:41.779Z,3.40
2019-03-25T17:14:10.187Z,3.50
2019-03-25T17:16:38.669Z,3.50
2019-03-25T17:19:07.144Z,3.50
2019-03-25T17:21:35.548Z,3.40
2019-03-25T17:24:04.026Z,3.40
2019-03-25T17:26:42.060Z,3.40
2019-03-25T17:29:02.560Z,3.40
2019-03-25T17:31:30.963Z,3.40
2019-03-25T17:33:59.384Z,3.40
2019-03-25T17:36:27.796Z,3.40
2019-03-25T17:38:56.207Z,3.30
2019-03-25T17:41:24.615Z,3.40
2019-03-25T17:43:53.011Z,3.40
2019-03-25T17:46:21.428Z,3.40
2019-03-25T17:48:49.819Z,3.40
2019-03-25T17:51:18.227Z,3.40
2019-03-25T17:53:46.623Z,3.40
2019-03-25T17:56:15.046Z,3.40
2019-03-25T17:58:43.452Z,3.50
2019-03-25T18:01:13.904Z,3.50
2019-03-25T18:03:42.590Z,3.60
2019-03-25T18:06:11.462Z,3.60
2019-03-25T18:08:41.846Z,3.70
2019-03-25T18:11:10.209Z,3.70
2019-03-25T18:13:42.708Z,3.70
2019-03-25T18:16:12.376Z,3.70
2019-03-25T18:18:41.890Z,3.70
2019-03-25T18:21:13.281Z,3.70
2019-03-25T18:23:41.680Z,3.70
2019-03-25T18:26:10.089Z,3.80
2019-03-25T18:28:38.497Z,3.80
2019-03-25T18:31:08.468Z,3.80
2019-03-25T18:33:36.889Z,3.80
2019-03-25T18:36:05.370Z,3.80
2019-03-25T18:38:33.750Z,3.80
2019-03-25T18:41:02.164Z,3.60
2019-03-25T18:43:30.716Z,3.30
2019-03-25T18:45:59.155Z,3.10
2019-03-25T18:48:27.555Z,2.80
2019-03-25T18:50:55.961Z,2.60
2019-03-25T18:53:24.365Z,2.40
2019-03-25T18:55:52.799Z,2.30
2019-03-25T18:58:21.254Z,2.20
2019-03-25T19:00:49.745Z,2.20
2019-03-25T19:03:18.514Z,2.10
2019-03-25T19:05:47.214Z,2.10
2019-03-25T19:08:15.811Z,2.20
2019-03-25T19:10:44.283Z,2.20
2019-03-25T19:13:12.763Z,2.20
2019-03-25T19:15:41.254Z,2.20
2019-03-25T19:18:09.735Z,2.30
2019-03-25T19:20:38.160Z,2.30
2019-03-25T19:23:06.550Z,2.30
2019-03-25T19:25:35.032Z,2.30
2019-03-25T19:28:03.506Z,2.30
2019-03-25T19:30:31.921Z,2.30
2019-03-25T19:33:00.323Z,2.40
2019-03-25T19:35:30.073Z,2.40
2019-03-25T19:37:58.717Z,2.40
2019-03-25T19:40:27.119Z,2.40
2019-03-25T19:42:55.543Z,2.30
2019-03-25T19:45:23.995Z,2.30
2019-03-25T19:47:52.414Z,2.30
2019-03-25T19:50:20.968Z,2.40
2019-03-25T19:52:49.438Z,2.30
2019-03-25T19:55:17.921Z,2.40
2019-03-25T19:57:46.315Z,2.40
2019-03-25T20:00:15.269Z,2.50
2019-03-25T20:02:43.736Z,2.50
2019-03-25T20:05:12.284Z,2.50
2019-03-25T20:07:40.750Z,2.50
2019-03-25T20:10:12.262Z,2.60
2019-03-25T20:12:40.718Z,2.60
2019-03-25T20:15:09.760Z,2.50
2019-03-25T20:17:38.206Z,2.50
2019-03-25T20:20:06.907Z,2.60
2019-03-25T20:22:35.369Z,2.60
2019-03-25T20:25:05.747Z,2.60
2019-03-25T20:27:34.304Z,2.60
2019-03-25T20:30:03.215Z,2.60
2019-03-25T20:32:32.560Z,2.70
2019-03-25T20:35:00.971Z,2.70
2019-03-25T20:37:29.377Z,2.70
2019-03-25T20:39:57.888Z,2.70
2019-03-25T20:42:26.345Z,2.70
2019-03-25T20:44:54.772Z,2.60
2019-03-25T20:47:23.241Z,2.70
2019-03-25T20:49:51.703Z,2.70
2019-03-25T20:52:20.229Z,2.60
2019-03-25T20:54:48.689Z,2.60
2019-03-25T20:57:17.112Z,2.50
2019-03-25T20:59:45.557Z,2.50
2019-03-25T21:02:13.966Z,2.50
2019-03-25T21:04:42.374Z,2.50
2019-03-25T21:07:10.797Z,2.50
2019-03-25T21:09:39.264Z,2.50
2019-03-25T21:12:07.684Z,2.50
2019-03-25T21:14:36.159Z,2.50
2019-03-25T21:17:04.832Z,2.50
2019-03-25T21:19:33.491Z,2.40
2019-03-25T21:22:01.972Z,2.40
2019-03-25T21:24:30.376Z,2.50
2019-03-25T21:26:58.936Z,2.50
2019-03-25T21:29:27.424Z,2.40
2019-03-25T21:31:55.918Z,2.50
2019-03-25T21:34:24.391Z,2.50
2019-03-25T21:36:52.978Z,2.50
2019-03-25T21:39:21.375Z,2.50
2019-03-25T21:41:49.862Z,2.50
2019-03-25T21:44:18.355Z,2.50
2019-03-25T21:46:46.866Z,2.50
2019-03-25T21:49:15.269Z,2.50
2019-03-25T21:51:43.827Z,2.50
2019-03-25T21:54:12.322Z,2.50
2019-03-25T21:56:40.822Z,2.50
2019-03-25T21:59:09.237Z,2.50
2019-03-25T22:01:37.644Z,2.50
2019-03-25T22:04:06.027Z,2.50
2019-03-25T22:06:34.436Z,2.50
2019-03-25T22:09:02.854Z,2.50
2019-03-25T22:11:31.255Z,2.60
2019-03-25T22:13:59.659Z,2.60
2019-03-25T22:16:28.060Z,2.60
2019-03-25T22:18:56.480Z,2.50
2019-03-25T22:21:24.880Z,2.50
2019-03-25T22:23:53.964Z,2.60
2019-03-25T22:26:22.480Z,2.40
2019-03-25T22:28:50.885Z,2.40
2019-03-25T22:31:19.280Z,2.40
2019-03-25T22:33:47.684Z,2.40
2019-03-25T22:36:16.094Z,2.30
2019-03-25T22:38:44.490Z,2.30
2019-03-25T22:41:12.899Z,2.30
2019-03-25T22:43:41.303Z,2.30
2019-03-25T22:46:10.660Z,2.30
2019-03-25T22:48:39.057Z,2.30
2019-03-25T22:51:07.477Z,2.20
2019-03-25T22:53:35.871Z,2.20
2019-03-25T22:56:04.285Z,2.30
2019-03-25T22:58:32.692Z,2.30
2019-03-25T23:01:02.344Z,2.30
2019-03-25T23:03:39.222Z,2.30
2019-03-25T23:06:00.948Z,2.30
2019-03-25T23:08:29.347Z,2.30
2019-03-25T23:10:57.774Z,2.30
2019-03-25T23:13:26.176Z,2.30
2019-03-25T23:15:54.582Z,2.30
2019-03-25T23:18:22.988Z,2.30
2019-03-25T23:20:51.391Z,2.30
2019-03-25T23:23:19.804Z,2.30
2019-03-25T23:25:48.235Z,2.30
2019-03-25T23:28:16.652Z,2.40
2019-03-25T23:30:45.053Z,2.40
2019-03-25T23:33:13.459Z,2.30
2019-03-25T23:35:41.872Z,2.30
2019-03-25T23:38:10.264Z,2.30
2019-03-25T23:40:38.681Z,2.30
2019-03-25T23:43:07.087Z,2.40
2019-03-25T23:45:35.516Z,2.40
2019-03-25T23:48:03.998Z,2.40
2019-03-25T23:50:32.400Z,2.40
2019-03-25T23:53:00.803Z,2.40
2019-03-25T23:55:29.272Z,2.50
2019-03-25T23:57:57.689Z,2.50
